createdAt,value
2022-11-20T00:01:33.860Z,1.90
2022-11-20T00:04:00.672Z,1.80
2022-11-20T00:06:29.353Z,1.80
2022-11-20T00:08:58.131Z,1.80
2022-11-20T00:11:26.305Z,2.00
2022-11-20T00:13:55.326Z,1.90
2022-11-20T00:16:25.823Z,1.90
2022-11-20T00:18:53.197Z,1.90
2022-11-20T00:21:25.370Z,2.00
2022-11-20T00:23:55.272Z,2.00
2022-11-20T00:26:23.502Z,2.10
2022-11-20T00:28:56.775Z,2.10
2022-11-20T00:31:24.156Z,2.00
2022-11-20T00:33:50.947Z,2.10
2022-11-20T00:36:20.196Z,2.20
2022-11-20T00:38:47.544Z,2.20
2022-11-20T00:41:16.221Z,2.20
2022-11-20T00:43:43.789Z,2.20
2022-11-20T00:46:22.706Z,2.00
2022-11-20T00:48:49.685Z,2.00
2022-11-20T00:51:21.581Z,1.80
2022-11-20T00:53:48.686Z,1.70
2022-11-20T00:56:18.225Z,1.70
2022-11-20T00:58:48.337Z,1.80
2022-11-20T01:01:25.017Z,1.90
2022-11-20T01:03:53.353Z,1.90
2022-11-20T01:06:21.633Z,1.80
2022-11-20T01:08:49.493Z,1.70
2022-11-20T01:11:19.353Z,1.60
2022-11-20T01:13:47.660Z,1.70
2022-11-20T01:16:16.893Z,1.80
2022-11-20T01:18:46.504Z,1.80
2022-11-20T01:21:17.633Z,1.70
2022-11-20T01:23:45.512Z,1.60
2022-11-20T01:26:18.717Z,1.50
2022-11-20T01:28:45.761Z,1.50
2022-11-20T01:31:27.540Z,1.60
2022-11-20T01:33:57.277Z,1.60
2022-11-20T01:36:25.041Z,1.60
2022-11-20T01:38:56.975Z,1.50
2022-11-20T01:41:43.630Z,1.60
2022-11-20T01:44:15.786Z,1.60
2022-11-20T01:47:03.898Z,1.60
2022-11-20T01:49:42.826Z,1.70
2022-11-20T01:52:18.266Z,1.70
2022-11-20T01:54:53.256Z,1.70
2022-11-20T01:57:21.682Z,1.70
2022-11-20T01:59:58.170Z,1.70
2022-11-20T02:02:25.226Z,1.70
2022-11-20T02:04:55.045Z,1.70
2022-11-20T02:07:21.994Z,1.70
2022-11-20T02:09:48.606Z,1.70
2022-11-20T02:12:35.600Z,1.70
2022-11-20T02:15:02.431Z,1.70
2022-11-20T02:17:29.154Z,1.70
2022-11-20T02:19:55.874Z,1.60
2022-11-20T02:22:29.753Z,1.50
2022-11-20T02:24:59.760Z,1.50
2022-11-20T02:27:27.570Z,1.50
2022-11-20T02:30:01.681Z,1.40
2022-11-20T02:32:34.141Z,1.40
2022-11-20T02:35:10.850Z,1.50
2022-11-20T02:37:41.357Z,1.50
2022-11-20T02:40:08.738Z,1.60
2022-11-20T02:42:36.643Z,1.50
2022-11-20T02:45:03.902Z,1.50
2022-11-20T02:47:30.658Z,1.50
2022-11-20T02:49:57.434Z,1.50
2022-11-20T02:52:24.850Z,1.50
2022-11-20T02:54:51.479Z,1.30
2022-11-20T02:57:18.079Z,1.30
2022-11-20T02:59:44.736Z,1.40
2022-11-20T03:02:11.327Z,1.40
2022-11-20T03:04:38.011Z,1.30
2022-11-20T03:07:05.048Z,1.20
2022-11-20T03:09:31.779Z,1.10
2022-11-20T03:11:58.447Z,1.10
2022-11-20T03:14:25.091Z,1.20
2022-11-20T03:16:51.727Z,1.20
2022-11-20T03:19:18.495Z,1.20
2022-11-20T03:21:45.306Z,1.30
2022-11-20T03:24:11.944Z,1.30
2022-11-20T03:26:40.440Z,1.40
2022-11-20T03:29:07.185Z,1.40
2022-11-20T03:31:36.896Z,1.40
2022-11-20T03:34:04.232Z,1.40
2022-11-20T03:36:31.702Z,1.40
2022-11-20T03:38:58.549Z,1.50
2022-11-20T03:41:28.050Z,1.40
2022-11-20T03:43:57.938Z,1.40
2022-11-20T03:46:25.334Z,1.30
2022-11-20T03:48:52.369Z,1.30
2022-11-20T03:51:21.775Z,1.30
2022-11-20T03:53:49.846Z,1.40
2022-11-20T03:56:18.447Z,1.40
2022-11-20T03:58:45.165Z,1.30
2022-11-20T04:01:17.823Z,1.30
2022-11-20T04:03:46.208Z,1.40
2022-11-20T04:06:18.875Z,1.40
2022-11-20T04:08:50.976Z,1.40
2022-11-20T04:11:24.764Z,1.50
2022-11-20T04:13:54.085Z,1.50
2022-11-20T04:16:21.940Z,1.50
2022-11-20T04:18:51.966Z,1.40
2022-11-20T04:21:18.594Z,1.40
2022-11-20T04:23:45.175Z,1.40
2022-11-20T04:26:13.329Z,1.30
2022-11-20T04:28:40.649Z,1.30
2022-11-20T04:31:09.658Z,1.30
2022-11-20T04:33:37.341Z,1.30
2022-11-20T04:36:07.010Z,1.20
2022-11-20T04:38:34.123Z,1.20
2022-11-20T04:41:02.341Z,1.30
2022-11-20T04:43:29.179Z,1.30
2022-11-20T04:45:57.264Z,1.30
2022-11-20T04:48:25.108Z,1.40
2022-11-20T04:50:52.647Z,1.40
2022-11-20T04:53:20.049Z,1.30
2022-11-20T04:55:47.105Z,1.40
2022-11-20T04:58:14.018Z,1.40
2022-11-20T05:00:40.881Z,1.30
2022-11-20T05:03:07.773Z,1.30
2022-11-20T05:05:37.474Z,1.30
2022-11-20T05:08:04.106Z,1.20
2022-11-20T05:10:30.822Z,1.20
2022-11-20T05:12:58.280Z,1.30
2022-11-20T05:15:25.225Z,1.30
2022-11-20T05:17:52.917Z,1.40
2022-11-20T05:20:19.946Z,1.40
2022-11-20T05:22:46.876Z,1.20
2022-11-20T05:25:13.822Z,1.30
2022-11-20T05:27:40.588Z,1.30
2022-11-20T05:30:08.222Z,1.30
2022-11-20T05:32:34.823Z,1.30
2022-11-20T05:35:01.596Z,1.20
2022-11-20T05:37:28.181Z,1.20
2022-11-20T05:39:54.760Z,1.20
2022-11-20T05:42:33.821Z,1.20
2022-11-20T05:45:02.482Z,1.20
2022-11-20T05:47:33.403Z,1.10
2022-11-20T05:50:00.181Z,1.10
2022-11-20T05:52:30.319Z,1.10
2022-11-20T05:54:57.542Z,1.20
2022-11-20T05:57:24.135Z,1.10
2022-11-20T05:59:50.740Z,1.30
2022-11-20T06:02:17.484Z,1.40
2022-11-20T06:04:44.128Z,1.50
2022-11-20T06:07:11.176Z,1.50
2022-11-20T06:09:37.845Z,1.40
2022-11-20T06:12:04.832Z,1.30
2022-11-20T06:14:31.410Z,1.30
2022-11-20T06:16:58.037Z,1.30
2022-11-20T06:19:24.618Z,1.30
2022-11-20T06:21:51.289Z,1.40
2022-11-20T06:24:18.571Z,1.40
2022-11-20T06:26:46.112Z,1.40
2022-11-20T06:29:12.954Z,1.40
2022-11-20T06:31:39.985Z,1.40
2022-11-20T06:34:07.159Z,1.50
2022-11-20T06:36:34.421Z,1.50
2022-11-20T06:39:01.773Z,1.50
2022-11-20T06:41:29.021Z,1.50
2022-11-20T06:43:55.745Z,1.60
2022-11-20T06:46:23.206Z,1.60
2022-11-20T06:48:50.772Z,1.50
2022-11-20T06:51:17.575Z,1.60
2022-11-20T06:53:44.310Z,1.60
2022-11-20T06:56:11.024Z,1.40
2022-11-20T06:58:38.060Z,1.30
2022-11-20T07:01:13.943Z,1.30
2022-11-20T07:03:41.486Z,1.30
2022-11-20T07:06:09.220Z,1.40
2022-11-20T07:08:36.126Z,1.40
2022-11-20T07:11:07.739Z,1.40
2022-11-20T07:13:34.483Z,1.30
2022-11-20T07:16:06.913Z,1.30
2022-11-20T07:18:33.879Z,1.40
2022-11-20T07:21:09.208Z,1.40
2022-11-20T07:23:35.887Z,1.50
2022-11-20T07:26:11.023Z,1.50
2022-11-20T07:28:38.037Z,1.40
2022-11-20T07:31:05.961Z,1.40
2022-11-20T07:33:32.609Z,1.50
2022-11-20T07:36:02.684Z,1.40
2022-11-20T07:38:29.402Z,1.30
2022-11-20T07:41:02.336Z,1.40
2022-11-20T07:43:29.073Z,1.40
2022-11-20T07:45:59.500Z,1.40
2022-11-20T07:48:26.243Z,1.40
2022-11-20T07:50:56.918Z,1.40
2022-11-20T07:53:24.469Z,1.40
2022-11-20T07:55:53.347Z,1.50
2022-11-20T07:58:21.175Z,1.50
2022-11-20T08:00:47.927Z,1.60
2022-11-20T08:03:15.319Z,1.70
2022-11-20T08:05:43.213Z,1.80
2022-11-20T08:08:09.934Z,1.80
2022-11-20T08:10:36.734Z,1.80
2022-11-20T08:13:21.772Z,1.90
2022-11-20T08:15:52.299Z,1.90
2022-11-20T08:18:34.655Z,1.80
2022-11-20T08:21:05.590Z,1.80
2022-11-20T08:23:32.492Z,1.80
2022-11-20T08:25:59.258Z,1.80
2022-11-20T08:28:25.966Z,1.80
2022-11-20T08:30:58.269Z,1.80
2022-11-20T08:33:24.971Z,1.90
2022-11-20T08:35:51.613Z,1.90
2022-11-20T08:38:18.237Z,1.90
2022-11-20T08:41:07.858Z,2.00
2022-11-20T08:43:34.623Z,1.90
2022-11-20T08:46:01.678Z,2.10
2022-11-20T08:48:28.297Z,2.20
2022-11-20T08:50:58.271Z,2.20
2022-11-20T08:53:24.885Z,2.30
2022-11-20T08:55:51.486Z,2.20
2022-11-20T08:58:18.089Z,2.20
2022-11-20T09:00:44.837Z,2.30
2022-11-20T09:03:11.517Z,2.30
2022-11-20T09:05:38.156Z,2.40
2022-11-20T09:08:04.945Z,2.40
2022-11-20T09:10:31.676Z,2.50
2022-11-20T09:12:58.366Z,2.50
2022-11-20T09:15:26.366Z,2.50
2022-11-20T09:17:57.389Z,2.60
2022-11-20T09:20:24.238Z,2.70
2022-11-20T09:22:50.904Z,2.80
2022-11-20T09:25:17.823Z,2.90
2022-11-20T09:27:46.809Z,3.20
2022-11-20T09:30:16.658Z,3.10
2022-11-20T09:32:43.555Z,3.20
2022-11-20T09:35:11.511Z,3.30
2022-11-20T09:37:38.568Z,3.40
2022-11-20T09:40:05.722Z,3.60
2022-11-20T09:42:46.125Z,3.60
2022-11-20T09:45:24.582Z,3.70
2022-11-20T09:48:21.721Z,3.90
2022-11-20T09:51:11.555Z,4.20
2022-11-20T09:53:47.584Z,4.30
2022-11-20T09:56:19.820Z,4.40
2022-11-20T09:58:52.526Z,4.30
2022-11-20T10:01:22.382Z,4.30
2022-11-20T10:03:55.099Z,4.30
2022-11-20T10:06:59.524Z,4.40
2022-11-20T10:09:44.906Z,4.50
2022-11-20T10:12:28.763Z,4.40
2022-11-20T10:15:11.722Z,4.40
2022-11-20T10:18:03.498Z,4.30
2022-11-20T10:20:52.306Z,4.30
2022-11-20T10:23:43.601Z,4.30
2022-11-20T10:26:48.610Z,4.30
2022-11-20T10:29:23.125Z,4.30
2022-11-20T10:32:01.243Z,4.30
2022-11-20T10:34:36.337Z,4.30
2022-11-20T10:37:12.255Z,4.30
2022-11-20T10:40:00.280Z,4.30
2022-11-20T10:42:44.718Z,4.30
2022-11-20T10:45:28.478Z,4.10
2022-11-20T10:48:05.962Z,4.20
2022-11-20T10:50:33.687Z,4.20
2022-11-20T10:53:44.189Z,4.10
2022-11-20T10:56:39.192Z,4.00
2022-11-20T10:59:31.261Z,4.00
2022-11-20T11:01:59.786Z,3.90
2022-11-20T11:04:45.105Z,4.00
2022-11-20T11:07:20.178Z,4.00
2022-11-20T11:09:56.595Z,4.00
2022-11-20T11:12:25.902Z,4.10
2022-11-20T11:14:57.873Z,3.90
2022-11-20T11:17:29.299Z,3.90
2022-11-20T11:19:59.893Z,4.00
2022-11-20T11:22:28.887Z,4.00
2022-11-20T11:24:55.912Z,3.90
2022-11-20T11:27:22.592Z,4.10
2022-11-20T11:29:49.321Z,4.20
2022-11-20T11:32:21.624Z,4.10
2022-11-20T11:35:07.205Z,4.10
2022-11-20T11:37:36.805Z,4.10
2022-11-20T11:42:57.577Z,4.20
2022-11-20T11:45:25.285Z,4.20
2022-11-20T11:47:53.774Z,4.00
2022-11-20T11:50:23.782Z,4.00
2022-11-20T11:53:10.183Z,4.10
2022-11-20T11:55:39.295Z,4.20
2022-11-20T11:58:15.024Z,4.20
2022-11-20T12:00:58.186Z,4.40
2022-11-20T12:03:38.349Z,4.40
2022-11-20T12:06:13.667Z,4.50
2022-11-20T12:09:13.737Z,4.50
2022-11-20T12:12:01.945Z,4.50
2022-11-20T12:14:35.946Z,4.50
2022-11-20T12:17:03.707Z,4.50
2022-11-20T12:19:35.888Z,4.60
2022-11-20T12:22:28.007Z,4.70
2022-11-20T12:25:15.731Z,4.70
2022-11-20T12:27:49.102Z,4.60
2022-11-20T12:30:17.833Z,4.40
2022-11-20T12:33:09.947Z,4.30
2022-11-20T12:36:07.267Z,4.20
2022-11-20T12:38:40.115Z,4.20
2022-11-20T12:41:55.007Z,4.10
2022-11-20T12:45:10.865Z,4.10
2022-11-20T12:47:57.682Z,4.10
2022-11-20T12:51:00.661Z,4.20
2022-11-20T12:53:45.753Z,4.20
2022-11-20T12:56:51.074Z,4.10
2022-11-20T12:59:24.049Z,4.10
2022-11-20T13:01:57.066Z,4.10
2022-11-20T13:04:44.589Z,4.10
2022-11-20T13:07:15.572Z,4.10
2022-11-20T13:09:47.986Z,4.10
2022-11-20T13:12:45.353Z,4.10
2022-11-20T13:15:48.819Z,4.10
2022-11-20T13:18:16.164Z,4.10
2022-11-20T13:20:47.714Z,4.10
2022-11-20T13:23:28.490Z,4.20
2022-11-20T13:26:20.683Z,4.30
2022-11-20T13:28:59.806Z,4.30
2022-11-20T13:31:37.705Z,4.20
2022-11-20T13:34:07.809Z,4.20
2022-11-20T13:36:36.010Z,4.20
2022-11-20T13:39:02.888Z,4.20
2022-11-20T13:41:35.212Z,4.20
2022-11-20T13:44:11.644Z,4.20
2022-11-20T13:46:46.421Z,4.20
2022-11-20T13:49:31.054Z,4.30
2022-11-20T13:52:32.430Z,4.30
2022-11-20T13:55:15.559Z,4.20
2022-11-20T13:57:54.582Z,4.10
2022-11-20T14:00:23.938Z,4.10
2022-11-20T14:03:07.837Z,4.10
2022-11-20T14:05:38.260Z,4.10
2022-11-20T14:08:08.119Z,4.20
2022-11-20T14:10:34.765Z,4.10
2022-11-20T14:13:16.462Z,4.10
2022-11-20T14:15:45.226Z,4.20
2022-11-20T14:18:20.543Z,4.20
2022-11-20T14:20:47.991Z,4.10
2022-11-20T14:23:30.209Z,4.10
2022-11-20T14:25:57.757Z,4.10
2022-11-20T14:28:33.642Z,4.00
2022-11-20T14:31:00.366Z,4.10
2022-11-20T14:33:28.613Z,4.10
2022-11-20T14:35:57.935Z,4.00
2022-11-20T14:38:30.205Z,4.10
2022-11-20T14:41:07.898Z,4.20
2022-11-20T14:43:36.841Z,4.20
2022-11-20T14:46:09.165Z,4.20
2022-11-20T14:48:44.103Z,4.20
2022-11-20T14:51:12.737Z,4.10
2022-11-20T14:53:39.381Z,4.10
2022-11-20T14:56:06.163Z,4.10
2022-11-20T14:58:36.900Z,4.20
2022-11-20T15:01:08.540Z,4.20
2022-11-20T15:03:37.648Z,4.20
2022-11-20T15:06:06.175Z,4.20
2022-11-20T15:08:33.167Z,4.20
2022-11-20T15:11:00.108Z,4.20
2022-11-20T15:13:31.458Z,4.20
2022-11-20T15:16:01.182Z,4.20
2022-11-20T15:18:29.905Z,4.20
2022-11-20T15:21:03.881Z,4.20
2022-11-20T15:23:31.017Z,4.20
2022-11-20T15:25:57.710Z,4.10
2022-11-20T15:28:34.738Z,4.10
2022-11-20T15:31:03.254Z,4.10
2022-11-20T15:33:30.991Z,4.20
2022-11-20T15:35:57.888Z,4.20
2022-11-20T15:38:24.662Z,4.10
2022-11-20T15:40:51.731Z,4.20
2022-11-20T15:43:18.461Z,4.20
2022-11-20T15:45:51.892Z,4.20
2022-11-20T15:48:22.081Z,4.20
2022-11-20T15:51:00.769Z,4.20
2022-11-20T15:53:28.259Z,4.20
2022-11-20T15:55:55.618Z,4.20
2022-11-20T15:58:24.000Z,4.20
2022-11-20T16:00:51.147Z,4.30
2022-11-20T16:03:19.168Z,4.20
2022-11-20T16:05:46.435Z,4.20
2022-11-20T16:08:13.242Z,4.20
2022-11-20T16:10:40.770Z,4.20
2022-11-20T16:13:34.404Z,4.20
2022-11-20T16:16:05.964Z,4.20
2022-11-20T16:18:33.275Z,4.20
2022-11-20T16:21:00.140Z,4.20
2022-11-20T16:23:26.901Z,4.20
2022-11-20T16:25:53.580Z,4.30
2022-11-20T16:28:20.663Z,4.30
2022-11-20T16:30:47.718Z,4.30
2022-11-20T16:33:16.731Z,4.20
2022-11-20T16:35:43.752Z,4.20
2022-11-20T16:38:10.651Z,4.20
2022-11-20T16:40:37.317Z,4.20
2022-11-20T16:43:10.686Z,4.20
2022-11-20T16:45:44.881Z,4.30
2022-11-20T16:48:16.769Z,4.20
2022-11-20T16:50:52.025Z,4.20
2022-11-20T16:53:22.638Z,4.30
2022-11-20T16:55:49.437Z,4.30
2022-11-20T16:58:16.420Z,4.30
2022-11-20T17:00:48.387Z,4.40
2022-11-20T17:03:18.026Z,4.40
2022-11-20T17:05:44.644Z,4.40
2022-11-20T17:08:11.305Z,4.30
2022-11-20T17:10:37.977Z,4.40
2022-11-20T17:13:04.832Z,4.40
2022-11-20T17:15:31.692Z,4.40
2022-11-20T17:17:58.337Z,4.40
2022-11-20T17:20:25.131Z,4.40
2022-11-20T17:22:51.871Z,4.30
2022-11-20T17:25:18.575Z,4.40
2022-11-20T17:27:45.153Z,4.40
2022-11-20T17:30:12.046Z,4.50
2022-11-20T17:32:39.809Z,4.40
2022-11-20T17:35:06.738Z,4.40
2022-11-20T17:37:33.415Z,4.40
2022-11-20T17:40:00.049Z,4.40
2022-11-20T17:42:26.789Z,4.40
2022-11-20T17:44:53.425Z,4.40
2022-11-20T17:47:20.162Z,4.50
2022-11-20T17:49:46.796Z,4.50
2022-11-20T17:52:13.533Z,4.40
2022-11-20T17:54:40.112Z,4.50
2022-11-20T17:57:25.605Z,4.40
2022-11-20T17:59:52.334Z,4.50
2022-11-20T18:02:19.021Z,4.50
2022-11-20T18:04:45.845Z,4.40
2022-11-20T18:07:12.607Z,4.40
2022-11-20T18:09:39.246Z,4.50
2022-11-20T18:12:06.307Z,4.40
2022-11-20T18:14:33.105Z,4.40
2022-11-20T18:17:02.150Z,4.40
2022-11-20T18:19:32.989Z,4.40
2022-11-20T18:22:01.560Z,4.50
2022-11-20T18:24:28.733Z,4.50
2022-11-20T18:26:55.899Z,4.50
2022-11-20T18:29:22.742Z,4.50
2022-11-20T18:31:49.951Z,4.50
2022-11-20T18:34:16.860Z,4.50
2022-11-20T18:36:45.108Z,4.50
2022-11-20T18:39:13.301Z,4.50
2022-11-20T18:41:59.127Z,4.50
2022-11-20T18:44:49.431Z,4.40
2022-11-20T18:47:28.395Z,4.50
2022-11-20T18:49:57.357Z,4.50
2022-11-20T18:52:37.845Z,4.60
2022-11-20T18:55:05.693Z,4.50
2022-11-20T18:57:33.057Z,4.50
2022-11-20T19:00:03.546Z,4.60
2022-11-20T19:02:37.941Z,4.60
2022-11-20T19:05:08.284Z,4.70
2022-11-20T19:07:34.982Z,4.70
2022-11-20T19:10:04.039Z,4.60
2022-11-20T19:12:31.097Z,4.60
2022-11-20T19:14:57.930Z,4.80
2022-11-20T19:17:24.659Z,4.70
2022-11-20T19:19:52.156Z,4.70
2022-11-20T19:22:18.789Z,4.80
2022-11-20T19:24:45.900Z,4.80
2022-11-20T19:27:12.718Z,4.90
2022-11-20T19:29:39.704Z,4.90
2022-11-20T19:32:06.605Z,4.90
2022-11-20T19:34:33.269Z,5.00
2022-11-20T19:37:00.761Z,4.90
2022-11-20T19:39:27.503Z,4.90
2022-11-20T19:41:54.380Z,4.90
2022-11-20T19:44:21.077Z,4.90
2022-11-20T19:46:47.695Z,4.90
2022-11-20T19:49:14.876Z,4.90
2022-11-20T19:51:47.036Z,4.90
2022-11-20T19:54:13.890Z,5.00
2022-11-20T19:56:40.611Z,5.00
2022-11-20T19:59:07.389Z,5.00
2022-11-20T20:01:35.121Z,5.00
2022-11-20T20:04:03.481Z,5.00
2022-11-20T20:06:31.271Z,5.00
2022-11-20T20:09:04.281Z,5.00
2022-11-20T20:11:32.869Z,5.00
2022-11-20T20:14:04.719Z,5.00
2022-11-20T20:16:32.003Z,4.90
2022-11-20T20:19:03.616Z,5.00
2022-11-20T20:21:31.606Z,5.00
2022-11-20T20:23:59.929Z,4.90
2022-11-20T20:26:28.352Z,5.00
2022-11-20T20:28:55.461Z,5.00
2022-11-20T20:31:24.796Z,5.00
2022-11-20T20:33:51.925Z,5.00
2022-11-20T20:36:20.211Z,4.90
2022-11-20T20:38:47.604Z,5.00
2022-11-20T20:41:18.364Z,5.00
2022-11-20T20:44:03.832Z,5.00
2022-11-20T20:46:30.511Z,5.00
2022-11-20T20:48:57.185Z,5.00
2022-11-20T20:51:24.015Z,5.00
2022-11-20T20:53:51.161Z,5.00
2022-11-20T20:56:18.664Z,5.10
2022-11-20T20:58:45.649Z,5.10
2022-11-20T21:01:14.573Z,5.10
2022-11-20T21:03:41.733Z,5.00
2022-11-20T21:06:09.876Z,5.10
2022-11-20T21:08:40.080Z,5.10
2022-11-20T21:11:10.413Z,5.10
2022-11-20T21:13:38.402Z,5.00
2022-11-20T21:16:05.597Z,5.10
2022-11-20T21:18:32.698Z,5.10
2022-11-20T21:21:18.294Z,5.10
2022-11-20T21:23:48.283Z,5.10
2022-11-20T21:26:16.100Z,5.10
2022-11-20T21:28:42.867Z,5.10
2022-11-20T21:31:15.680Z,5.10
2022-11-20T21:33:47.751Z,5.00
2022-11-20T21:36:19.611Z,5.10
2022-11-20T21:38:47.256Z,5.10
2022-11-20T21:41:16.086Z,5.00
2022-11-20T21:43:44.139Z,5.10
2022-11-20T21:46:13.200Z,5.00
2022-11-20T21:48:41.031Z,5.10
2022-11-20T21:51:15.583Z,5.10
2022-11-20T21:53:43.117Z,5.00
2022-11-20T21:56:11.357Z,5.00
2022-11-20T21:58:39.707Z,5.10
2022-11-20T22:01:09.392Z,5.00
2022-11-20T22:03:37.365Z,5.00
2022-11-20T22:06:04.978Z,5.00
2022-11-20T22:08:31.651Z,5.10
2022-11-20T22:11:03.950Z,5.10
2022-11-20T22:13:49.502Z,5.10
2022-11-20T22:16:16.309Z,5.10
2022-11-20T22:18:50.704Z,5.10
2022-11-20T22:21:19.540Z,5.10
2022-11-20T22:23:46.226Z,5.10
2022-11-20T22:26:18.125Z,5.10
2022-11-20T22:28:48.788Z,5.10
2022-11-20T22:31:16.440Z,5.20
2022-11-20T22:33:43.476Z,5.10
2022-11-20T22:36:13.189Z,5.20
2022-11-20T22:38:40.111Z,5.10
2022-11-20T22:41:09.023Z,5.10
2022-11-20T22:43:36.304Z,5.10
2022-11-20T22:46:17.751Z,5.10
2022-11-20T22:48:52.553Z,5.00
2022-11-20T22:51:21.055Z,5.00
2022-11-20T22:53:48.872Z,5.00
2022-11-20T22:56:16.686Z,5.00
2022-11-20T22:58:45.562Z,5.00
2022-11-20T23:01:27.571Z,5.00
2022-11-20T23:04:01.543Z,5.00
2022-11-20T23:06:28.948Z,4.90
2022-11-20T23:08:56.406Z,4.90
2022-11-20T23:11:28.149Z,4.90
2022-11-20T23:13:57.876Z,4.80
2022-11-20T23:16:25.615Z,4.80
2022-11-20T23:18:57.211Z,4.80
2022-11-20T23:21:24.204Z,4.80
2022-11-20T23:23:52.940Z,4.80
2022-11-20T23:26:23.977Z,4.80
2022-11-20T23:28:52.629Z,4.80
2022-11-20T23:31:19.278Z,4.80
2022-11-20T23:33:46.549Z,4.80
2022-11-20T23:36:14.527Z,4.90
2022-11-20T23:38:41.241Z,4.90
2022-11-20T23:41:08.225Z,4.90
2022-11-20T23:43:35.550Z,4.90
2022-11-20T23:46:03.314Z,4.80
2022-11-20T23:48:33.042Z,4.80
2022-11-20T23:51:00.095Z,4.80
2022-11-20T23:53:27.864Z,4.80
2022-11-20T23:55:56.936Z,4.80
2022-11-20T23:58:25.514Z,4.80
